Time;durP1;ratioP1;P1;durP2;ratioP2;P2;SDS_P1;SDS_P2;PMS_P1;PMS_P2;Temp;Humidity;BMP_temperature;BMP_pressure;BME280_temperature;BME280_humidity;BME280_pressure;Samples;Min_cycle;Max_cycle;Signal;HPM_P1;HPM_P2
2023/09/04 00:00:40;;;;;;;12.67;5.70;;;18.70;75.70;;;;;;5087812;28;20472;-79
2023/09/04 00:03:08;;;;;;;7.70;5.30;;;18.70;75.70;;;;;;5086631;28;20958;-77
2023/09/04 00:05:36;;;;;;;7.40;5.50;;;18.60;75.60;;;;;;5088946;28;20457;-79
2023/09/04 00:08:06;;;;;;;7.37;5.17;;;18.60;75.60;;;;;;5087100;28;20983;-78
2023/09/04 00:10:34;;;;;;;7.93;5.23;;;18.60;75.60;;;;;;5083629;28;20466;-79
2023/09/04 00:13:04;;;;;;;7.47;4.90;;;18.60;75.60;;;;;;5087069;28;20580;-77
2023/09/04 00:15:32;;;;;;;8.93;5.20;;;18.50;75.60;;;;;;5069402;28;20464;-77
2023/09/04 00:18:00;;;;;;;7.93;5.43;;;18.50;75.60;;;;;;5068335;28;20496;-79
2023/09/04 00:20:29;;;;;;;9.23;5.17;;;18.50;75.60;;;;;;5088139;28;20831;-79
2023/09/04 00:22:57;;;;;;;7.90;4.70;;;18.40;75.60;;;;;;5085406;28;20468;-79
2023/09/04 00:25:25;;;;;;;7.67;5.40;;;18.40;75.60;;;;;;5087824;28;20552;-79
2023/09/04 00:27:55;;;;;;;8.30;5.70;;;18.40;75.60;;;;;;5088974;28;20793;-78
2023/09/04 00:30:25;;;;;;;10.93;5.90;;;18.40;75.40;;;;;;5070933;28;20457;-79
2023/09/04 00:32:54;;;;;;;9.03;5.40;;;18.30;75.40;;;;;;5087613;28;20441;-80
2023/09/04 00:35:23;;;;;;;11.20;5.77;;;18.30;75.40;;;;;;5087559;28;20510;-80
2023/09/04 00:37:51;;;;;;;9.40;5.70;;;18.30;75.40;;;;;;5089350;28;20532;-78
2023/09/04 00:40:19;;;;;;;8.20;5.60;;;18.20;75.50;;;;;;5088731;28;20472;-80
2023/09/04 00:42:47;;;;;;;11.83;6.20;;;18.20;75.50;;;;;;5088935;28;20612;-79
2023/09/04 00:45:26;;;;;;;13.27;5.67;;;18.10;75.50;;;;;;5088915;28;20449;-79
2023/09/04 00:47:54;;;;;;;8.43;5.33;;;18.10;75.60;;;;;;5086432;28;20654;-79
2023/09/04 00:50:23;;;;;;;9.03;5.77;;;18.10;75.60;;;;;;5084117;28;20468;-79
2023/09/04 00:52:57;;;;;;;10.83;6.00;;;18.00;75.50;;;;;;5083743;28;20513;-78
2023/09/04 00:55:26;;;;;;;10.13;5.40;;;18.00;75.50;;;;;;5086927;28;20461;-79
2023/09/04 00:57:54;;;;;;;7.67;5.37;;;18.00;75.60;;;;;;5085029;28;20456;-79
2023/09/04 01:00:25;;;;;;;9.50;5.87;;;17.90;75.70;;;;;;5087026;28;20573;-79
2023/09/04 01:02:54;;;;;;;9.50;5.20;;;17.90;75.70;;;;;;5103535;28;21390;-79
2023/09/04 01:05:23;;;;;;;9.70;5.87;;;17.90;75.70;;;;;;5105723;28;20504;-79
2023/09/04 01:07:51;;;;;;;10.00;5.73;;;17.90;75.70;;;;;;5090132;28;20464;-80
2023/09/04 01:10:19;;;;;;;9.00;5.93;;;17.90;75.90;;;;;;5104102;28;20456;-79
2023/09/04 01:13:04;;;;;;;9.70;4.97;;;17.80;75.90;;;;;;5090605;28;20495;-78
2023/09/04 01:15:33;;;;;;;10.40;6.00;;;17.80;75.90;;;;;;5088559;28;21030;-78
2023/09/04 01:18:03;;;;;;;7.97;5.07;;;17.80;75.90;;;;;;5087521;28;20488;-78
2023/09/04 01:20:34;;;;;;;7.83;5.03;;;17.80;75.90;;;;;;5105914;28;21000;-79
2023/09/04 01:23:01;;;;;;;7.90;5.50;;;17.80;76.00;;;;;;5090708;28;21039;-78
2023/09/04 01:25:39;;;;;;;8.93;5.80;;;17.80;76.00;;;;;;5110366;28;20528;-78
2023/09/04 01:28:26;;;;;;;11.50;5.50;;;17.70;75.80;;;;;;5109585;28;20512;-78
2023/09/04 01:31:02;;;;;;;8.50;5.20;;;17.70;75.80;;;;;;5107512;28;20562;-78
2023/09/04 01:33:33;;;;;;;12.80;5.90;;;17.60;75.90;;;;;;5091358;28;20991;-78
2023/09/04 01:36:05;;;;;;;10.10;5.50;;;17.60;75.80;;;;;;5108422;28;20814;-78
2023/09/04 01:38:34;;;;;;;9.33;5.13;;;17.60;75.80;;;;;;5090069;28;20455;-79
2023/09/04 01:41:05;;;;;;;11.10;6.30;;;17.50;75.80;;;;;;5108334;28;20559;-78
2023/09/04 01:43:33;;;;;;;7.53;5.03;;;17.40;75.80;;;;;;5110967;28;20460;-79
2023/09/04 01:46:01;;;;;;;9.33;5.40;;;17.40;75.90;;;;;;5093966;28;20474;-78
2023/09/04 01:48:29;;;;;;;11.73;6.50;;;17.40;75.90;;;;;;5112118;28;20456;-79
2023/09/04 01:50:57;;;;;;;10.03;5.70;;;17.40;76.00;;;;;;5097298;28;20454;-80
2023/09/04 01:53:27;;;;;;;10.07;6.10;;;17.30;76.00;;;;;;5092948;28;20882;-79
2023/09/04 01:55:55;;;;;;;9.13;5.80;;;17.30;76.00;;;;;;5092997;28;20455;-79
2023/09/04 01:58:23;;;;;;;9.60;5.70;;;17.30;76.00;;;;;;5108785;28;20981;-80
2023/09/04 02:00:51;;;;;;;9.43;6.03;;;17.20;76.10;;;;;;5094250;28;20998;-75
2023/09/04 02:03:19;;;;;;;8.93;5.50;;;17.20;76.20;;;;;;5094264;28;20463;-79
2023/09/04 02:05:48;;;;;;;7.43;5.23;;;17.20;76.20;;;;;;5111125;28;20499;-78
2023/09/04 02:08:16;;;;;;;9.20;5.70;;;17.20;76.30;;;;;;5114046;27;20542;-78
2023/09/04 02:10:45;;;;;;;10.30;5.80;;;17.20;76.20;;;;;;5093062;28;21033;-78
2023/09/04 02:13:13;;;;;;;10.43;5.50;;;17.20;76.20;;;;;;5090044;28;20480;-79
2023/09/04 02:15:43;;;;;;;7.03;4.60;;;17.20;76.20;;;;;;5094771;28;20475;-78
2023/09/04 02:18:13;;;;;;;10.83;5.23;;;17.20;76.10;;;;;;5093368;28;20456;-78
2023/09/04 02:20:40;;;;;;;9.70;5.07;;;17.20;76.20;;;;;;5109672;28;20568;-78
2023/09/04 02:23:09;;;;;;;9.37;5.47;;;17.10;76.30;;;;;;5091840;28;20459;-77
2023/09/04 02:25:38;;;;;;;7.23;5.33;;;17.10;76.40;;;;;;5092906;28;20474;-77
2023/09/04 02:28:07;;;;;;;10.10;4.80;;;17.10;76.50;;;;;;5089485;28;20455;-79
2023/09/04 02:30:39;;;;;;;9.80;6.37;;;17.20;76.40;;;;;;5089496;28;20457;-78
2023/09/04 02:33:12;;;;;;;10.27;6.10;;;17.10;76.20;;;;;;5108318;28;20951;-77
2023/09/04 02:35:40;;;;;;;7.43;5.10;;;17.10;76.30;;;;;;5109824;28;20954;-78
2023/09/04 02:38:08;;;;;;;9.20;6.00;;;17.00;76.30;;;;;;5093184;28;20550;-78
2023/09/04 02:40:36;;;;;;;8.83;5.20;;;17.00;76.40;;;;;;5094362;28;20467;-78
2023/09/04 02:43:06;;;;;;;10.40;6.17;;;17.00;76.40;;;;;;5093507;28;20525;-78
2023/09/04 02:45:34;;;;;;;8.50;5.60;;;17.00;76.50;;;;;;5112085;28;20443;-78
2023/09/04 02:48:02;;;;;;;9.20;5.70;;;17.00;76.50;;;;;;5093380;28;20498;-80
2023/09/04 02:50:30;;;;;;;15.17;5.97;;;17.00;76.50;;;;;;5108786;27;20475;-78
2023/09/04 02:52:58;;;;;;;7.70;4.87;;;17.00;76.50;;;;;;5091392;28;20985;-78
2023/09/04 02:55:28;;;;;;;10.03;5.63;;;17.00;76.40;;;;;;5109684;28;21041;-78
2023/09/04 02:57:56;;;;;;;13.07;5.80;;;17.00;76.40;;;;;;5111672;27;20539;-78
2023/09/04 03:00:41;;;;;;;8.17;5.30;;;16.90;76.30;;;;;;5092074;28;20484;-77
2023/09/04 03:03:09;;;;;;;9.67;5.50;;;16.80;76.40;;;;;;5093254;28;20498;-77
2023/09/04 03:05:37;;;;;;;9.83;6.03;;;16.80;76.50;;;;;;5094017;28;21278;-79
2023/09/04 03:08:05;;;;;;;9.07;5.23;;;16.80;76.50;;;;;;5112493;28;20492;-79
2023/09/04 03:10:33;;;;;;;10.40;4.73;;;16.80;76.50;;;;;;5112690;28;20551;-80
2023/09/04 03:13:01;;;;;;;9.60;4.90;;;16.90;76.50;;;;;;5093589;28;20459;-78
2023/09/04 03:15:30;;;;;;;8.63;5.60;;;16.90;76.40;;;;;;5109423;28;20471;-78
2023/09/04 03:17:59;;;;;;;11.90;5.73;;;16.90;76.40;;;;;;5109319;28;20439;-78
2023/09/04 03:20:27;;;;;;;7.67;5.17;;;16.90;76.40;;;;;;5108826;28;20841;-78
2023/09/04 03:22:59;;;;;;;7.80;5.47;;;16.90;76.40;;;;;;5090858;28;20875;-80
2023/09/04 03:25:27;;;;;;;9.13;5.47;;;16.90;76.40;;;;;;5091473;28;20551;-79
2023/09/04 03:27:55;;;;;;;9.17;5.50;;;16.90;76.30;;;;;;5091723;28;20452;-79
2023/09/04 03:30:33;;;;;;;9.37;5.70;;;16.90;76.30;;;;;;5095655;28;20542;-79
2023/09/04 03:33:04;;;;;;;9.30;5.70;;;16.90;76.30;;;;;;5088228;28;20548;-79
2023/09/04 03:35:32;;;;;;;8.97;5.67;;;16.90;76.30;;;;;;5110942;28;20465;-79
2023/09/04 03:38:00;;;;;;;8.10;5.80;;;16.90;76.30;;;;;;5089561;28;20476;-79
2023/09/04 03:40:30;;;;;;;9.03;5.50;;;16.90;76.30;;;;;;5092757;28;20472;-79
2023/09/04 03:42:58;;;;;;;10.47;5.87;;;16.90;76.30;;;;;;5092466;28;20997;-78
2023/09/04 03:45:31;;;;;;;8.43;5.70;;;16.90;76.30;;;;;;5110120;28;21023;-77
2023/09/04 03:48:00;;;;;;;8.77;5.40;;;16.90;76.20;;;;;;5107766;28;20850;-81
2023/09/04 03:50:30;;;;;;;8.00;5.37;;;16.90;76.20;;;;;;5091927;28;21045;-78
2023/09/04 03:52:58;;;;;;;8.60;5.20;;;16.80;76.20;;;;;;5109032;28;20468;-77
2023/09/04 03:55:26;;;;;;;8.57;5.30;;;16.80;76.20;;;;;;5091818;28;20491;-79
2023/09/04 03:57:54;;;;;;;9.03;5.23;;;16.80;76.20;;;;;;5091546;28;20456;-78
2023/09/04 04:00:24;;;;;;;8.30;5.73;;;16.80;76.20;;;;;;5090133;28;20485;-79
2023/09/04 04:02:55;;;;;;;7.70;5.37;;;16.80;76.10;;;;;;5093270;28;20536;-77
2023/09/04 04:05:25;;;;;;;6.93;4.20;;;16.80;76.10;;;;;;5107222;28;20948;-76
2023/09/04 04:07:54;;;;;;;8.70;4.90;;;16.80;76.00;;;;;;5091575;27;20957;-80
2023/09/04 04:10:24;;;;;;;8.70;5.37;;;16.80;76.00;;;;;;5089767;28;20546;-80
2023/09/04 04:12:53;;;;;;;7.77;4.83;;;16.80;75.80;;;;;;5091495;28;20824;-80
2023/09/04 04:15:21;;;;;;;8.20;5.10;;;16.80;75.80;;;;;;5092776;28;20854;-80
2023/09/04 04:17:49;;;;;;;10.80;5.10;;;16.70;75.80;;;;;;5110776;28;20508;-79
2023/09/04 04:20:17;;;;;;;8.80;5.93;;;16.70;75.80;;;;;;5110233;27;20924;-80
2023/09/04 04:22:46;;;;;;;9.03;6.40;;;16.70;75.90;;;;;;5102311;28;20479;-79
2023/09/04 04:25:15;;;;;;;8.30;5.33;;;16.70;75.90;;;;;;5095074;28;20490;-79
2023/09/04 04:27:50;;;;;;;8.93;5.17;;;16.70;75.90;;;;;;5091519;28;20455;-80
2023/09/04 04:30:20;;;;;;;8.70;6.00;;;16.70;75.80;;;;;;5088748;28;20465;-78
2023/09/04 04:32:50;;;;;;;10.03;6.30;;;16.60;75.80;;;;;;5088133;28;20452;-79
2023/09/04 04:35:19;;;;;;;8.30;5.40;;;16.60;75.90;;;;;;5091992;28;20455;-79
2023/09/04 04:37:47;;;;;;;9.30;6.00;;;16.60;76.00;;;;;;5085711;28;20463;-79
2023/09/04 04:40:21;;;;;;;9.60;6.13;;;16.60;76.00;;;;;;5090522;28;20538;-80
2023/09/04 04:42:50;;;;;;;8.17;5.10;;;16.60;75.90;;;;;;5091434;28;20528;-79
2023/09/04 04:45:19;;;;;;;8.80;5.50;;;16.60;75.90;;;;;;5090472;28;20908;-78
2023/09/04 04:47:47;;;;;;;9.40;5.60;;;16.50;75.90;;;;;;5091360;28;20452;-79
2023/09/04 04:50:15;;;;;;;8.80;5.80;;;16.50;76.00;;;;;;5088589;28;20808;-78
2023/09/04 04:52:43;;;;;;;10.07;5.57;;;16.50;76.00;;;;;;5084989;28;20973;-78
2023/09/04 04:55:12;;;;;;;8.97;5.73;;;16.60;76.10;;;;;;5108121;28;20956;-78
2023/09/04 04:57:42;;;;;;;9.20;5.50;;;16.60;76.10;;;;;;5088388;28;20982;-78
2023/09/04 05:00:11;;;;;;;10.30;5.17;;;16.60;76.10;;;;;;5088893;28;20977;-79
2023/09/04 05:02:39;;;;;;;9.87;6.10;;;16.60;76.10;;;;;;5087995;28;20478;-78
2023/09/04 05:05:08;;;;;;;7.80;5.80;;;16.60;76.10;;;;;;5089614;28;20455;-77
2023/09/04 05:07:37;;;;;;;9.53;6.60;;;16.60;76.10;;;;;;5089117;28;20538;-78
2023/09/04 05:10:07;;;;;;;9.17;6.60;;;16.60;76.20;;;;;;5086870;28;20812;-78
2023/09/04 05:12:36;;;;;;;10.70;6.40;;;16.60;76.40;;;;;;5087927;28;20539;-76
2023/09/04 05:15:07;;;;;;;10.83;6.27;;;16.90;77.50;;;;;;5109415;28;20451;-76
2023/09/04 05:17:36;;;;;;;9.17;5.47;;;17.40;77.60;;;;;;5091514;28;20543;-76
2023/09/04 05:20:05;;;;;;;9.17;5.57;;;18.00;77.20;;;;;;5092070;28;20463;-76
2023/09/04 05:22:33;;;;;;;9.07;5.90;;;18.70;76.40;;;;;;5090738;28;20479;-77
2023/09/04 05:25:01;;;;;;;7.83;5.33;;;19.20;75.20;;;;;;5093761;28;20517;-77
2023/09/04 05:27:30;;;;;;;8.53;6.07;;;19.70;74.50;;;;;;5111148;28;20460;-76
2023/09/04 05:29:58;;;;;;;9.63;5.57;;;20.20;73.70;;;;;;5094508;28;20483;-79
2023/09/04 05:32:28;;;;;;;9.67;5.37;;;20.80;73.10;;;;;;5085524;28;20490;-79
2023/09/04 05:34:57;;;;;;;8.57;5.10;;;21.60;71.90;;;;;;5109788;28;20470;-77
2023/09/04 05:37:25;;;;;;;9.13;5.10;;;22.30;70.70;;;;;;5110470;28;20863;-76
2023/09/04 05:39:53;;;;;;;9.83;5.40;;;23.00;69.30;;;;;;5092914;28;20474;-79
2023/09/04 05:42:21;;;;;;;10.60;5.73;;;23.70;68.10;;;;;;5111102;28;20483;-77
2023/09/04 05:44:49;;;;;;;10.50;5.90;;;24.20;66.30;;;;;;5092516;28;20486;-78
2023/09/04 05:47:17;;;;;;;8.10;5.10;;;23.80;64.50;;;;;;5111255;28;20978;-77
2023/09/04 05:49:47;;;;;;;12.60;5.53;;;22.90;64.50;;;;;;5110474;28;20473;-77
2023/09/04 05:52:15;;;;;;;12.97;6.50;;;21.80;65.10;;;;;;5090643;28;20551;-78
2023/09/04 05:54:43;;;;;;;10.57;6.67;;;20.80;66.10;;;;;;5109341;28;20486;-78
2023/09/04 05:57:11;;;;;;;8.00;6.33;;;20.00;67.10;;;;;;5110498;28;20449;-77
2023/09/04 05:59:39;;;;;;;10.10;6.83;;;19.50;68.00;;;;;;5109371;28;20957;-78
2023/09/04 06:02:07;;;;;;;9.60;6.97;;;19.00;68.80;;;;;;5108876;28;21001;-75
2023/09/04 06:04:36;;;;;;;11.10;7.80;;;18.60;69.60;;;;;;5112662;28;20455;-78
2023/09/04 06:07:06;;;;;;;10.40;6.77;;;18.40;70.20;;;;;;5109006;28;20469;-78
2023/09/04 06:09:35;;;;;;;8.60;6.80;;;18.20;70.80;;;;;;5110807;28;20454;-79
2023/09/04 06:12:03;;;;;;;12.80;7.17;;;18.00;71.20;;;;;;5108058;28;20440;-77
2023/09/04 06:14:32;;;;;;;10.27;7.77;;;17.90;71.70;;;;;;5074331;28;20448;-76
2023/09/04 06:17:00;;;;;;;10.13;7.30;;;17.70;72.20;;;;;;5093457;28;20836;-79
2023/09/04 06:19:28;;;;;;;12.93;7.10;;;17.60;72.80;;;;;;5090792;28;20451;-78
2023/09/04 06:21:59;;;;;;;12.23;7.37;;;17.50;73.30;;;;;;5111241;28;20447;-78
2023/09/04 06:24:28;;;;;;;10.30;7.57;;;17.50;73.80;;;;;;5106719;28;20954;-77
2023/09/04 06:26:56;;;;;;;10.80;7.17;;;17.50;74.10;;;;;;5111185;28;20451;-79
2023/09/04 06:29:25;;;;;;;10.67;7.40;;;17.50;74.50;;;;;;5093586;28;20953;-77
2023/09/04 06:31:53;;;;;;;16.60;7.07;;;17.50;74.90;;;;;;5092015;28;20536;-78
2023/09/04 06:34:21;;;;;;;10.33;6.93;;;17.50;75.10;;;;;;5109819;28;21006;-76
2023/09/04 06:36:49;;;;;;;9.43;6.80;;;17.50;75.40;;;;;;5111030;28;20594;-78
2023/09/04 06:39:17;;;;;;;12.23;6.70;;;17.60;75.60;;;;;;5111085;28;20900;-77
2023/09/04 06:41:46;;;;;;;8.70;6.10;;;17.60;75.80;;;;;;5090222;28;20464;-78
2023/09/04 06:44:14;;;;;;;10.13;6.97;;;17.60;76.10;;;;;;5108153;28;20475;-79
2023/09/04 06:46:42;;;;;;;9.47;6.67;;;17.70;76.30;;;;;;5091538;28;20544;-79
2023/09/04 06:49:10;;;;;;;9.33;6.97;;;17.70;76.40;;;;;;5111484;28;20448;-78
2023/09/04 06:51:39;;;;;;;13.40;6.53;;;17.70;76.60;;;;;;5092561;28;21045;-79
2023/09/04 06:54:07;;;;;;;11.33;6.33;;;17.70;76.90;;;;;;5109692;28;20442;-78
2023/09/04 06:56:35;;;;;;;9.07;6.33;;;17.70;77.00;;;;;;5111191;28;20456;-78
2023/09/04 06:59:05;;;;;;;11.23;6.40;;;17.80;77.20;;;;;;5110788;28;20966;-78
2023/09/04 07:01:33;;;;;;;9.50;6.50;;;17.80;77.30;;;;;;5108125;28;20478;-79
2023/09/04 07:04:01;;;;;;;10.23;6.70;;;17.80;77.40;;;;;;5110905;28;20480;-78
2023/09/04 07:06:29;;;;;;;9.20;6.40;;;17.80;77.50;;;;;;5109506;28;20542;-78
2023/09/04 07:08:57;;;;;;;10.17;6.77;;;17.90;77.60;;;;;;5111975;28;20549;-78
2023/09/04 07:11:33;;;;;;;18.30;7.13;;;17.90;77.60;;;;;;5111530;28;20513;-80
2023/09/04 07:14:01;;;;;;;11.80;7.00;;;17.90;77.60;;;;;;5113104;28;20869;-78
2023/09/04 07:16:37;;;;;;;9.37;6.00;;;17.90;77.70;;;;;;5111813;28;20946;-78
2023/09/04 07:19:17;;;;;;;8.23;6.20;;;18.00;77.80;;;;;;5104285;28;21299;-78
2023/09/04 07:21:45;;;;;;;8.60;6.07;;;18.00;77.90;;;;;;5109081;28;20950;-78
2023/09/04 07:24:13;;;;;;;10.60;6.17;;;18.10;77.90;;;;;;5110258;28;20511;-78
2023/09/04 07:26:41;;;;;;;8.60;5.43;;;18.10;78.00;;;;;;5090987;28;20452;-77
2023/09/04 07:29:09;;;;;;;9.70;5.57;;;18.10;78.00;;;;;;5091052;28;20811;-78
2023/09/04 07:31:39;;;;;;;13.00;6.63;;;18.20;78.00;;;;;;5109586;28;20472;-78
2023/09/04 07:34:07;;;;;;;9.53;5.40;;;18.20;78.00;;;;;;5109518;28;20440;-77
2023/09/04 07:36:35;;;;;;;14.40;5.80;;;18.20;78.00;;;;;;5110062;28;20526;-79
2023/09/04 07:39:03;;;;;;;10.10;5.30;;;18.30;78.00;;;;;;5110035;28;20466;-77
2023/09/04 07:41:31;;;;;;;8.27;5.97;;;18.40;78.00;;;;;;5091207;28;20470;-78
2023/09/04 07:43:59;;;;;;;7.90;5.10;;;18.40;77.90;;;;;;5108775;28;20556;-78
2023/09/04 07:46:27;;;;;;;10.07;6.10;;;18.50;77.90;;;;;;5108322;28;20539;-76
2023/09/04 07:48:56;;;;;;;8.77;5.40;;;18.50;77.90;;;;;;5108874;28;20462;-78
2023/09/04 07:51:24;;;;;;;10.40;5.50;;;18.60;77.70;;;;;;5091104;28;20966;-79
2023/09/04 07:54:02;;;;;;;14.73;6.07;;;18.70;77.70;;;;;;5109134;28;20479;-77
2023/09/04 07:56:31;;;;;;;7.63;5.50;;;18.80;77.70;;;;;;5091617;28;20462;-77
2023/09/04 07:59:08;;;;;;;6.73;4.80;;;18.90;77.60;;;;;;5107224;28;20483;-77
2023/09/04 08:01:36;;;;;;;9.80;5.27;;;18.90;77.50;;;;;;5108581;28;20477;-78
2023/09/04 08:04:06;;;;;;;8.80;5.00;;;18.90;77.40;;;;;;5108912;28;21317;-77
2023/09/04 08:06:35;;;;;;;8.17;5.17;;;19.00;77.20;;;;;;5108607;28;20899;-78
2023/09/04 08:09:03;;;;;;;8.23;4.63;;;19.10;77.00;;;;;;5108916;28;20454;-77
2023/09/04 08:11:31;;;;;;;7.03;4.63;;;19.20;76.70;;;;;;5090875;28;20954;-77
2023/09/04 08:13:59;;;;;;;8.63;4.80;;;19.20;76.50;;;;;;5085345;28;20884;-77
2023/09/04 08:16:27;;;;;;;9.97;5.00;;;19.30;76.30;;;;;;5091353;28;20481;-78
2023/09/04 08:18:55;;;;;;;8.10;5.20;;;19.30;76.00;;;;;;5103310;28;20448;-78
2023/09/04 08:21:24;;;;;;;10.27;4.97;;;19.40;75.90;;;;;;5109174;28;20503;-78
2023/09/04 08:23:52;;;;;;;8.80;5.20;;;19.50;75.60;;;;;;5090694;28;20511;-77
2023/09/04 08:26:21;;;;;;;8.23;4.80;;;19.50;75.50;;;;;;5109110;28;20530;-78
2023/09/04 08:28:49;;;;;;;9.23;5.23;;;19.60;75.30;;;;;;5090281;28;20479;-77
2023/09/04 08:31:17;;;;;;;9.10;4.90;;;19.60;75.10;;;;;;5108114;28;20927;-77
2023/09/04 08:33:45;;;;;;;8.57;5.17;;;19.70;75.00;;;;;;5108883;28;20436;-77
2023/09/04 08:36:14;;;;;;;12.13;4.53;;;19.70;74.90;;;;;;5107162;28;20448;-78
2023/09/04 08:38:43;;;;;;;8.57;4.60;;;19.70;74.50;;;;;;5109171;28;20546;-79
2023/09/04 08:41:17;;;;;;;9.10;4.47;;;19.80;74.20;;;;;;5108117;28;20483;-79
2023/09/04 08:43:46;;;;;;;11.10;5.33;;;19.90;74.00;;;;;;5105628;28;20472;-77
2023/09/04 08:46:16;;;;;;;9.10;4.50;;;19.90;73.70;;;;;;5090786;28;20452;-78
2023/09/04 08:48:46;;;;;;;7.43;4.27;;;20.00;73.60;;;;;;5088918;28;20452;-78
2023/09/04 08:51:16;;;;;;;9.20;4.80;;;20.00;73.50;;;;;;5108460;28;20444;-78
2023/09/04 08:53:49;;;;;;;7.40;4.37;;;20.10;73.40;;;;;;5108449;28;20454;-78
2023/09/04 08:56:18;;;;;;;11.17;4.37;;;20.20;73.30;;;;;;5105514;28;20473;-77
2023/09/04 08:58:46;;;;;;;8.30;4.37;;;20.20;73.10;;;;;;5106391;28;20462;-78
2023/09/04 09:01:16;;;;;;;8.10;3.93;;;20.30;72.90;;;;;;5089093;28;20554;-77
2023/09/04 09:03:44;;;;;;;7.20;4.30;;;20.40;72.40;;;;;;5089551;28;20826;-78
2023/09/04 09:06:12;;;;;;;8.40;4.30;;;20.40;72.20;;;;;;5090442;28;20463;-78
2023/09/04 09:08:44;;;;;;;8.30;4.73;;;20.40;71.80;;;;;;5108530;28;20530;-77
2023/09/04 09:11:15;;;;;;;7.80;4.57;;;20.50;71.50;;;;;;5107369;28;20444;-78
2023/09/04 09:13:44;;;;;;;10.20;4.40;;;20.50;71.40;;;;;;5108804;28;20444;-78
2023/09/04 09:16:18;;;;;;;6.67;3.97;;;20.60;71.30;;;;;;5090013;28;21142;-78
2023/09/04 09:18:47;;;;;;;7.93;4.10;;;20.70;71.00;;;;;;5108241;28;20534;-78
2023/09/04 09:21:22;;;;;;;7.60;3.80;;;20.70;70.60;;;;;;5108147;28;21001;-77
2023/09/04 09:24:07;;;;;;;11.13;3.93;;;20.80;70.40;;;;;;5107917;28;20563;-78
2023/09/04 09:26:37;;;;;;;6.33;3.63;;;20.80;70.00;;;;;;5105389;28;20539;-78
2023/09/04 09:29:08;;;;;;;9.07;3.93;;;20.90;69.90;;;;;;5107974;28;20461;-77
2023/09/04 09:31:38;;;;;;;6.20;3.60;;;20.90;69.40;;;;;;5109997;28;20478;-79
2023/09/04 09:34:07;;;;;;;7.50;4.20;;;21.00;69.00;;;;;;5107732;28;20456;-78
2023/09/04 09:36:36;;;;;;;8.10;4.20;;;21.00;68.90;;;;;;5108581;28;20455;-78
2023/09/04 09:39:05;;;;;;;8.53;3.40;;;21.00;68.70;;;;;;5106522;28;21269;-79
2023/09/04 09:41:34;;;;;;;7.33;3.77;;;21.10;68.40;;;;;;5107250;28;20491;-77
2023/09/04 09:44:04;;;;;;;7.00;3.37;;;21.20;68.00;;;;;;5089537;28;21025;-78
2023/09/04 09:46:36;;;;;;;8.60;3.40;;;21.20;67.60;;;;;;5094160;28;20451;-77
2023/09/04 09:49:07;;;;;;;6.90;3.93;;;21.30;67.20;;;;;;5106698;28;21103;-78
2023/09/04 09:51:37;;;;;;;6.57;3.43;;;21.30;67.10;;;;;;5108196;28;20451;-78
2023/09/04 09:54:05;;;;;;;9.93;3.37;;;21.40;67.10;;;;;;5107033;28;20436;-77
2023/09/04 09:56:34;;;;;;;7.50;3.30;;;21.40;66.80;;;;;;5090257;28;20451;-79
2023/09/04 09:59:04;;;;;;;5.77;3.30;;;21.50;66.80;;;;;;5107527;28;20930;-79
2023/09/04 10:01:32;;;;;;;6.43;3.67;;;21.60;66.60;;;;;;5110247;28;20911;-77
2023/09/04 10:04:01;;;;;;;8.80;3.63;;;21.60;66.30;;;;;;5111288;28;20471;-77
2023/09/04 10:06:34;;;;;;;11.80;4.00;;;21.70;66.10;;;;;;5111958;28;20534;-76
2023/09/04 10:09:05;;;;;;;7.83;3.30;;;21.70;66.10;;;;;;5111265;28;20514;-76
2023/09/04 10:11:36;;;;;;;7.10;3.10;;;21.80;65.90;;;;;;5109912;28;20486;-77
2023/09/04 10:14:12;;;;;;;7.20;3.27;;;21.90;65.80;;;;;;5109857;28;20976;-78
2023/09/04 10:16:46;;;;;;;7.53;2.90;;;21.90;65.70;;;;;;5110728;28;20443;-77
2023/09/04 10:19:18;;;;;;;5.90;3.10;;;22.00;64.90;;;;;;5108793;28;20508;-77
2023/09/04 10:21:53;;;;;;;6.13;3.30;;;22.00;64.40;;;;;;5109558;28;20458;-75
2023/09/04 10:24:28;;;;;;;6.30;2.50;;;22.10;64.30;;;;;;5108310;28;20546;-75
2023/09/04 10:27:01;;;;;;;7.93;2.70;;;22.20;63.40;;;;;;5109850;28;20538;-78
2023/09/04 10:29:36;;;;;;;5.30;2.50;;;22.20;62.90;;;;;;5108162;28;21135;-73
2023/09/04 10:32:05;;;;;;;7.37;3.30;;;22.30;62.90;;;;;;5107609;28;20471;-75
2023/09/04 10:34:33;;;;;;;7.03;3.17;;;22.30;62.90;;;;;;5107647;28;20487;-76
2023/09/04 10:37:01;;;;;;;7.13;2.70;;;22.40;62.80;;;;;;5107629;28;20463;-73
2023/09/04 10:39:31;;;;;;;6.50;2.70;;;22.40;62.60;;;;;;5106741;28;20487;-77
2023/09/04 10:42:00;;;;;;;5.60;2.73;;;22.50;62.60;;;;;;5105042;28;20470;-75
2023/09/04 10:45:12;;;;;;;6.90;2.70;;;22.50;62.30;;;;;;5108845;28;20584;-77
2023/09/04 10:47:45;;;;;;;6.90;3.40;;;22.60;61.90;;;;;;5106924;28;20456;-76
2023/09/04 10:50:27;;;;;;;6.67;2.30;;;22.70;61.80;;;;;;5109858;28;20558;-77
2023/09/04 10:52:56;;;;;;;6.23;3.30;;;22.70;60.90;;;;;;5101748;28;20543;-75
2023/09/04 10:55:25;;;;;;;7.27;3.30;;;22.70;60.80;;;;;;5108492;28;20447;-77
2023/09/04 10:57:57;;;;;;;5.80;2.80;;;22.80;60.70;;;;;;5108422;28;20444;-77
2023/09/04 11:00:32;;;;;;;7.83;2.33;;;22.80;60.60;;;;;;5105497;28;20540;-77
2023/09/04 11:03:13;;;;;;;5.23;2.37;;;22.90;60.50;;;;;;5089873;28;20468;-77
2023/09/04 11:06:20;;;;;;;5.47;2.63;;;23.00;60.20;;;;;;5102263;28;20504;-77
2023/09/04 11:08:52;;;;;;;4.70;2.30;;;23.00;60.00;;;;;;5107837;28;20451;-76
2023/09/04 11:11:27;;;;;;;5.87;2.70;;;23.10;60.30;;;;;;5106079;28;20501;-79
2023/09/04 11:13:59;;;;;;;9.57;3.07;;;23.20;60.20;;;;;;5111312;28;20483;-76
2023/09/04 11:16:33;;;;;;;6.03;3.07;;;23.20;60.10;;;;;;5108731;28;20482;-78
2023/09/04 11:19:03;;;;;;;6.80;2.67;;;23.30;59.90;;;;;;5108436;28;20455;-74
2023/09/04 11:21:32;;;;;;;5.87;2.60;;;23.30;59.80;;;;;;5090410;28;20539;-76
2023/09/04 11:24:02;;;;;;;5.63;2.73;;;23.30;59.70;;;;;;5108781;28;20452;-79
2023/09/04 11:26:30;;;;;;;7.83;3.10;;;23.40;59.60;;;;;;5108602;28;20475;-78
2023/09/04 11:29:00;;;;;;;8.30;3.13;;;23.40;59.70;;;;;;5108910;28;20558;-76
2023/09/04 11:31:30;;;;;;;7.50;3.50;;;23.50;59.50;;;;;;5089770;28;20468;-76
2023/09/04 11:33:59;;;;;;;6.50;2.97;;;23.50;59.40;;;;;;5103062;28;20463;-76
2023/09/04 11:36:28;;;;;;;8.40;2.40;;;23.50;58.90;;;;;;5108115;28;20448;-75
2023/09/04 11:39:07;;;;;;;8.20;2.37;;;23.60;58.60;;;;;;5108165;28;20475;-75
2023/09/04 11:41:35;;;;;;;6.27;2.77;;;23.60;58.40;;;;;;5108456;28;20468;-78
2023/09/04 11:44:05;;;;;;;7.13;2.90;;;23.60;58.00;;;;;;5089587;28;20481;-78
2023/09/04 11:46:35;;;;;;;6.00;2.47;;;23.70;58.00;;;;;;5104319;28;20503;-76
2023/09/04 11:49:03;;;;;;;5.33;2.60;;;23.80;57.80;;;;;;5106765;28;20505;-77
2023/09/04 11:51:32;;;;;;;7.73;2.60;;;23.80;57.80;;;;;;5108104;28;21185;-76
2023/09/04 11:54:03;;;;;;;4.87;2.20;;;23.90;57.60;;;;;;5107896;28;21034;-76
2023/09/04 11:56:32;;;;;;;5.37;2.27;;;23.90;57.20;;;;;;5107242;28;20455;-76
2023/09/04 11:59:02;;;;;;;5.60;2.20;;;24.00;57.00;;;;;;5089274;28;20451;-76
2023/09/04 12:01:31;;;;;;;5.73;2.53;;;24.00;56.30;;;;;;5105377;28;21306;-75
2023/09/04 12:04:02;;;;;;;5.53;2.50;;;24.10;56.40;;;;;;5106999;28;20863;-75
2023/09/04 12:06:30;;;;;;;6.70;2.47;;;24.20;56.20;;;;;;5105004;28;20476;-77
2023/09/04 12:08:59;;;;;;;8.90;3.00;;;24.20;55.80;;;;;;5106018;28;21007;-77
2023/09/04 12:11:27;;;;;;;6.00;2.30;;;24.20;55.70;;;;;;5106399;28;20444;-77
2023/09/04 12:13:55;;;;;;;6.30;2.73;;;24.30;55.80;;;;;;5107449;28;20771;-77
2023/09/04 12:16:23;;;;;;;7.30;3.00;;;24.40;55.60;;;;;;5105291;28;20903;-77
2023/09/04 12:18:51;;;;;;;9.20;2.80;;;24.40;55.10;;;;;;5105079;28;20455;-75
2023/09/04 12:21:25;;;;;;;5.90;2.50;;;24.40;54.80;;;;;;5088591;28;20831;-76
2023/09/04 12:23:54;;;;;;;7.93;2.50;;;24.50;54.40;;;;;;5105488;28;20451;-76
2023/09/04 12:26:22;;;;;;;6.43;2.33;;;24.60;54.30;;;;;;5106317;28;20990;-77
2023/09/04 12:28:52;;;;;;;5.30;2.57;;;24.60;54.40;;;;;;5104764;28;20456;-77
2023/09/04 12:31:22;;;;;;;5.20;2.43;;;24.70;54.60;;;;;;5104838;28;20986;-77
2023/09/04 12:33:52;;;;;;;5.20;2.40;;;24.70;54.50;;;;;;5106337;28;20483;-76
2023/09/04 12:36:21;;;;;;;5.00;2.20;;;24.70;54.40;;;;;;5104528;28;20535;-75
2023/09/04 12:38:49;;;;;;;6.67;2.60;;;24.70;54.10;;;;;;5104404;28;20479;-76
2023/09/04 12:41:17;;;;;;;6.43;2.80;;;24.80;53.90;;;;;;5105555;28;21423;-78
2023/09/04 12:43:45;;;;;;;5.20;2.33;;;24.80;53.10;;;;;;5106263;28;20467;-76
2023/09/04 12:46:16;;;;;;;6.40;2.67;;;24.80;53.10;;;;;;5105694;28;20498;-76
2023/09/04 12:48:46;;;;;;;7.93;2.90;;;24.90;53.40;;;;;;5107065;28;20456;-75
2023/09/04 12:51:14;;;;;;;7.90;2.50;;;25.00;53.50;;;;;;5103569;28;20452;-74
2023/09/04 12:53:43;;;;;;;6.67;2.57;;;25.00;53.30;;;;;;5104996;28;20470;-77
2023/09/04 12:56:11;;;;;;;6.00;2.50;;;25.10;53.20;;;;;;5104822;28;20451;-77
2023/09/04 12:58:39;;;;;;;5.30;2.30;;;25.10;53.10;;;;;;5087742;28;20456;-78